Fehn Calais — V2CI3 — position and weather

sailwx.info

Track history (hours):
 
Tides and Currents Weather Stations Pressure Air Temp Water Temp Dewpoint Dewpoint Depression Visibility Wind Speed Wind Dir Waves Ship Positions

Fehn Calais

Last reported at 2015-Apr-30 08:32 UTC. Time now 2015-Jul-04 19:06 UTC.
Position N 55°17' E 017°00'.
Warning: this ship's position is months out of date.

Length 82 m; draft 3.1 m.

Type: Cargo ship. MMSI: 305009000.

Date/timePositionNaut miles runAvg speedWind from/ knotsBaromVisibWave heightAir tempDewpointWater temp
2015-Apr-30 08:32N 55°17' E 017°00'6 5.6
2015-Apr-30 07:30N 55°14' E 016°52'23 5.3
2015-Apr-30 03:05N 55°02' E 016°16'3 5.1
2015-Apr-30 02:33N 55°01' E 016°12'6 5.3
2015-Apr-30 01:26N 54°58' E 016°03'11 5.3
2015-Apr-29 23:21N 54°54' E 015°46'4 5.3
2015-Apr-29 22:33N 54°52' E 015°39'18 5.3
2015-Apr-29 19:15N 54°45' E 015°11'9 5.2
2015-Apr-29 17:26N 54°42' E 014°56'5 5.2
2015-Apr-29 16:32N 54°40' E 014°48'7 5.3
2015-Apr-29 15:16N 54°38' E 014°37'14 5.0
2015-Apr-29 12:33N 54°37' E 014°14'5 5.0
2015-Apr-29 11:33N 54°38' E 014°06'5 5.0
2015-Apr-29 10:33N 54°40' E 013°57'5 5.2
2015-Apr-29 09:33N 54°41' E 013°49'8 8.3
2015-Apr-29 08:33N 54°43' E 013°34'9 9.0
2015-Apr-29 07:33N 54°43' E 013°19'8 8.2
2015-Apr-29 06:33N 54°42' E 013°05'9 9.2
2015-Apr-29 05:33N 54°41' E 012°49'9 9.5
2015-Apr-29 04:33N 54°37' E 012°34'10 9.7
2015-Apr-29 03:33N 54°32' E 012°20'9 9.0
2015-Apr-29 02:33N 54°25' E 012°10'1010.0
2015-Apr-29 01:33N 54°25' E 011°53'1010.2
2015-Apr-29 00:33N 54°28' E 011°36'1010.0
2015-Apr-28 23:34N 54°32' E 011°21'10 9.7
2015-Apr-28 22:34N 54°35' E 011°05'24 9.6
2015-Apr-28 20:06N 54°31' E 010°25'6 9.4
2015-Apr-28 19:29N 54°28' E 010°16'7 8.0
2015-Apr-28 18:33N 54°22' E 010°08'2 2.3
2015-Apr-28 17:33N 54°22' E 010°04'8 7.6
2015-Apr-28 16:33N 54°22' E 009°51'8 7.8
2015-Apr-28 15:30N 54°17' E 009°39'3 3.4
2015-Apr-28 14:29N 54°14' E 009°37'8 7.8
2015-Apr-28 13:31N 54°10' E 009°26'7 7.5
2015-Apr-28 12:33N 54°04' E 009°19'8 8.0
2015-Apr-28 11:33N 53°57' E 009°14'5 5.2
2015-Apr-28 10:33N 53°53' E 009°08'7 7.3
2015-Apr-28 09:33N 53°51' E 008°56'7 7.0
2015-Apr-28 08:34N 53°52' E 008°44'1 0.8
2015-Apr-28 07:33N 53°53' E 008°44'0 0.0
2015-Apr-28 06:33N 53°53' E 008°44'0 0.0
2015-Apr-28 05:33N 53°53' E 008°44'0 0.0
2015-Apr-28 04:30N 53°53' E 008°44'0 0.1
2015-Apr-28 03:24N 53°53' E 008°44'0 0.0
2015-Apr-28 02:33N 53°53' E 008°44'0 0.0
2015-Apr-28 01:33N 53°53' E 008°44'0 0.0
2015-Apr-28 00:33N 53°53' E 008°44'0 0.0
2015-Apr-27 23:33N 53°53' E 008°44'0 0.0
2015-Apr-27 22:33N 53°53' E 008°44'0 0.0
2015-Apr-27 21:33N 53°53' E 008°44'0 0.1
2015-Apr-27 20:33N 53°52' E 008°44'0 0.0
2015-Apr-27 19:33N 53°52' E 008°44'0 0.0
2015-Apr-27 18:33N 53°53' E 008°44'0 0.0
2015-Apr-27 17:33N 53°53' E 008°44'0 0.0
2015-Apr-27 16:33N 53°53' E 008°44'0 0.0
2015-Apr-27 15:33N 53°53' E 008°44'0 0.1
2015-Apr-27 14:30N 53°53' E 008°44'0 0.1
2015-Apr-27 13:33N 53°53' E 008°44'0 0.0
2015-Apr-27 12:33N 53°53' E 008°44'0 0.0
2015-Apr-27 11:33N 53°53' E 008°44'0 0.0
2015-Apr-27 10:33N 53°53' E 008°44'0 0.0
2015-Apr-27 09:33N 53°53' E 008°44'0 0.0
2015-Apr-27 08:33N 53°53' E 008°44'0 0.1
2015-Apr-27 07:33N 53°53' E 008°44'0 0.0
2015-Apr-27 06:33N 53°53' E 008°44'0 0.0
2015-Apr-27 05:33N 53°53' E 008°44'0 0.0
2015-Apr-27 04:33N 53°53' E 008°44'0 0.0
2015-Apr-27 03:33N 53°53' E 008°44'0 0.0
2015-Apr-27 02:33N 53°53' E 008°44'0 0.1
2015-Apr-27 01:33N 53°53' E 008°44'0 0.0
2015-Apr-27 00:33N 53°53' E 008°44'0 0.0
2015-Apr-26 23:33N 53°53' E 008°44'0 0.0
2015-Apr-26 22:33N 53°53' E 008°44'0 0.0
2015-Apr-26 21:33N 53°53' E 008°44'0 0.0
2015-Apr-26 20:33N 53°53' E 008°44'0 0.0
2015-Apr-26 19:33N 53°53' E 008°44'0 0.1
2015-Apr-26 18:33N 53°53' E 008°44'0 0.0
2015-Apr-26 17:33N 53°53' E 008°44'0 0.0
2015-Apr-26 16:33N 53°53' E 008°44'0 0.0
2015-Apr-26 15:33N 53°53' E 008°44'0 0.0
2015-Apr-26 14:33N 53°53' E 008°44'0 0.0
2015-Apr-26 13:33N 53°52' E 008°44'0 0.1
2015-Apr-26 12:33N 53°53' E 008°44'0 0.0
2015-Apr-26 11:33N 53°53' E 008°44'0 0.0
2015-Apr-26 10:33N 53°53' E 008°44'0 0.0
2015-Apr-26 09:33N 53°53' E 008°44'0 0.0
2015-Apr-26 08:33N 53°53' E 008°44'0 0.0
2015-Apr-26 07:33N 53°53' E 008°44'0 0.1
2015-Apr-26 06:33N 53°53' E 008°44'0 0.0
2015-Apr-26 05:33N 53°53' E 008°44'0 0.0
2015-Apr-26 04:33N 53°52' E 008°44'0 0.0
2015-Apr-26 03:33N 53°53' E 008°44'0 0.0
2015-Apr-26 02:33N 53°53' E 008°44'0 0.1
2015-Apr-26 01:33N 53°53' E 008°44'0 0.1
2015-Apr-26 00:33N 53°53' E 008°44'0 0.0
2015-Apr-25 23:33N 53°53' E 008°44'0 0.0
2015-Apr-25 22:33N 53°53' E 008°44'0 0.0
2015-Apr-25 21:33N 53°53' E 008°44'0 0.0
2015-Apr-25 20:33N 53°53' E 008°44'0 0.0
2015-Apr-25 19:33N 53°53' E 008°44'0 0.1
2015-Apr-25 18:27N 53°53' E 008°44'0 0.0
2015-Apr-25 17:33N 53°52' E 008°44'0 0.0
2015-Apr-25 16:33N 53°53' E 008°44'0 0.0
2015-Apr-25 15:33N 53°52' E 008°44'0 0.0
2015-Apr-25 14:33N 53°53' E 008°44'0 0.0
2015-Apr-25 13:33N 53°53' E 008°44'0 0.1
2015-Apr-25 12:33N 53°53' E 008°44'0 0.0
2015-Apr-25 11:33N 53°53' E 008°44'0 0.0
2015-Apr-25 10:33N 53°53' E 008°44'4 3.7
2015-Apr-25 09:33N 53°51' E 008°49'1212.3
2015-Apr-25 08:33N 53°53' E 009°09'10 9.9
2015-Apr-25 07:33N 53°47' E 009°23'8 8.5
2015-Apr-25 06:33N 53°40' E 009°31'8 7.5
2015-Apr-25 05:33N 53°34' E 009°39'7 7.4
2015-Apr-25 04:33N 53°33' E 009°51'5 4.9
2015-Apr-25 03:32N 53°30' E 009°58'0 0.0
2015-Apr-25 02:20N 53°30' E 009°58'0 0.0
2015-Apr-25 01:32N 53°30' E 009°58'0 0.0
2015-Apr-25 00:24N 53°30' E 009°58'0 0.0
2015-Apr-24 23:31N 53°30' E 009°58'0 0.0
2015-Apr-24 22:33N 53°30' E 009°58'0 0.0
2015-Apr-24 21:31N 53°30' E 009°58'0 0.0
2015-Apr-24 20:30N 53°30' E 009°58'0 0.0
2015-Apr-24 19:30N 53°30' E 009°58'0 0.0
2015-Apr-24 18:24N 53°30' E 009°58'0 0.0
2015-Apr-24 17:31N 53°30' E 009°58'0 0.0
2015-Apr-24 16:31N 53°30' E 009°58'0 0.0
2015-Apr-24 15:34N 53°30' E 009°58'0 0.0
2015-Apr-24 14:30N 53°30' E 009°58'0 0.0
2015-Apr-24 13:31N 53°30' E 009°58'0 0.0
2015-Apr-24 12:28N 53°30' E 009°58'0 0.0
2015-Apr-24 11:30N 53°30' E 009°58'0 0.0
2015-Apr-24 10:30N 53°30' E 009°58'0 0.0
2015-Apr-24 09:32N 53°30' E 009°58'0 0.0
2015-Apr-24 08:32N 53°30' E 009°58'0 0.0
2015-Apr-24 07:32N 53°30' E 009°58'0 0.0
2015-Apr-24 06:32N 53°30' E 009°58'0 0.0
2015-Apr-24 05:32N 53°30' E 009°58'0 0.0
2015-Apr-24 04:33N 53°30' E 009°58'2 2.1
2015-Apr-24 03:33N 53°32' E 009°56'10 9.7
2015-Apr-24 02:33N 53°34' E 009°40'9 9.2
2015-Apr-24 01:34N 53°41' E 009°30'8 8.0
2015-Apr-24 00:34N 53°48' E 009°23'7 6.5
2015-Apr-23 23:34N 53°52' E 009°15'4 3.8
2015-Apr-23 22:34N 53°54' E 009°09'1 0.8
2015-Apr-23 21:34N 53°54' E 009°10'3 3.1
2015-Apr-23 20:34N 53°56' E 009°13'7 7.3
2015-Apr-23 19:33N 54°03' E 009°18'16 7.3
2015-Apr-23 17:25N 54°14' E 009°37'7 7.6
2015-Apr-23 16:33N 54°20' E 009°43'7 7.4
2015-Apr-23 15:34N 54°20' E 009°56'7 7.5
2015-Apr-23 14:33N 54°22' E 010°09'1 0.9
2015-Apr-23 13:33N 54°22' E 010°10'3 3.2
2015-Apr-23 12:33N 54°25' E 010°13'8 8.0
2015-Apr-23 11:33N 54°31' E 010°22'9 8.4
2015-Apr-23 10:31N 54°34' E 010°36'16 7.9
2015-Apr-23 08:32N 54°36' E 011°03'7 7.4
2015-Apr-23 07:33N 54°35' E 011°15'7 6.9
2015-Apr-23 06:33N 54°28' E 011°20'6 6.1
2015-Apr-23 05:33N 54°23' E 011°14'3 2.4
2015-Apr-23 04:29N 54°25' E 011°11'0 0.0
2015-Apr-23 03:29N 54°25' E 011°11'0 0.0
2015-Apr-23 02:29N 54°25' E 011°11'0 0.0
2015-Apr-23 01:23N 54°25' E 011°11'0 0.0
2015-Apr-23 00:23N 54°25' E 011°11'0 0.0
2015-Apr-22 23:29N 54°25' E 011°11'0 0.0
2015-Apr-22 22:29N 54°25' E 011°11'0 0.0
2015-Apr-22 21:29N 54°25' E 011°11'0 0.0
2015-Apr-22 20:32N 54°25' E 011°11'0 0.0
2015-Apr-22 19:29N 54°25' E 011°11'0 0.0
2015-Apr-22 18:29N 54°25' E 011°11'0 0.0
2015-Apr-22 17:29N 54°25' E 011°11'0 0.0
2015-Apr-22 16:29N 54°25' E 011°11'0 0.0
2015-Apr-22 15:23N 54°25' E 011°11'0 0.0
2015-Apr-22 13:11N 54°25' E 011°11'0 0.0
2015-Apr-22 12:17N 54°25' E 011°11'0 0.0
2015-Apr-22 11:29N 54°25' E 011°11'0 0.0
2015-Apr-22 10:17N 54°25' E 011°11'0 0.0
2015-Apr-22 09:29N 54°25' E 011°11'0 0.0
2015-Apr-22 08:17N 54°25' E 011°11'0 0.0
2015-Apr-22 05:11N 54°25' E 011°11'0 0.0
2015-Apr-22 04:29N 54°25' E 011°11'2 2.5
2015-Apr-22 03:33N 54°23' E 011°14'5 4.7
2015-Apr-22 02:32N 54°26' E 011°21'6 6.5
2015-Apr-22 01:32N 54°32' E 011°17'10 9.0
2015-Apr-22 00:29N 54°34' E 011°00'18 9.5
2015-Apr-21 22:33N 54°32' E 010°29'5 4.9
2015-Apr-21 21:33N 54°31' E 010°21'6 5.8
2015-Apr-21 20:33N 54°33' E 010°30'52 2.3
2015-Apr-20 22:21N 55°08' E 011°36'  
Track history (hours):
 
Tides and Currents Weather Stations Pressure Air Temp Water Temp Dewpoint Dewpoint Depression Visibility Wind Speed Wind Dir Waves Ship Positions

Fehn Calais

Last reported at 2015-Apr-30 08:32 UTC. Time now 2015-Jul-04 19:06 UTC.
Position N 55°17' E 017°00'.
Warning: this ship's position is months out of date.

Length 82 m; draft 3.1 m.

Type: Cargo ship. MMSI: 305009000.

Date/timePositionNaut miles runAvg speedWind from/ knotsBaromVisibWave heightAir tempDewpointWater temp
2015-Apr-30 08:32N 55°17' E 017°00'6 5.6
2015-Apr-30 07:30N 55°14' E 016°52'23 5.3
2015-Apr-30 03:05N 55°02' E 016°16'3 5.1
2015-Apr-30 02:33N 55°01' E 016°12'6 5.3
2015-Apr-30 01:26N 54°58' E 016°03'11 5.3
2015-Apr-29 23:21N 54°54' E 015°46'4 5.3
2015-Apr-29 22:33N 54°52' E 015°39'18 5.3
2015-Apr-29 19:15N 54°45' E 015°11'9 5.2
2015-Apr-29 17:26N 54°42' E 014°56'5 5.2
2015-Apr-29 16:32N 54°40' E 014°48'7 5.3
2015-Apr-29 15:16N 54°38' E 014°37'14 5.0
2015-Apr-29 12:33N 54°37' E 014°14'5 5.0
2015-Apr-29 11:33N 54°38' E 014°06'5 5.0
2015-Apr-29 10:33N 54°40' E 013°57'5 5.2
2015-Apr-29 09:33N 54°41' E 013°49'8 8.3
2015-Apr-29 08:33N 54°43' E 013°34'9 9.0
2015-Apr-29 07:33N 54°43' E 013°19'8 8.2
2015-Apr-29 06:33N 54°42' E 013°05'9 9.2
2015-Apr-29 05:33N 54°41' E 012°49'9 9.5
2015-Apr-29 04:33N 54°37' E 012°34'10 9.7
2015-Apr-29 03:33N 54°32' E 012°20'9 9.0
2015-Apr-29 02:33N 54°25' E 012°10'1010.0
2015-Apr-29 01:33N 54°25' E 011°53'1010.2
2015-Apr-29 00:33N 54°28' E 011°36'1010.0
2015-Apr-28 23:34N 54°32' E 011°21'10 9.7
2015-Apr-28 22:34N 54°35' E 011°05'24 9.6
2015-Apr-28 20:06N 54°31' E 010°25'6 9.4
2015-Apr-28 19:29N 54°28' E 010°16'7 8.0
2015-Apr-28 18:33N 54°22' E 010°08'2 2.3
2015-Apr-28 17:33N 54°22' E 010°04'8 7.6
2015-Apr-28 16:33N 54°22' E 009°51'8 7.8
2015-Apr-28 15:30N 54°17' E 009°39'3 3.4
2015-Apr-28 14:29N 54°14' E 009°37'8 7.8
2015-Apr-28 13:31N 54°10' E 009°26'7 7.5
2015-Apr-28 12:33N 54°04' E 009°19'8 8.0
2015-Apr-28 11:33N 53°57' E 009°14'5 5.2
2015-Apr-28 10:33N 53°53' E 009°08'7 7.3
2015-Apr-28 09:33N 53°51' E 008°56'7 7.0
2015-Apr-28 08:34N 53°52' E 008°44'1 0.8
2015-Apr-28 07:33N 53°53' E 008°44'0 0.0
2015-Apr-28 06:33N 53°53' E 008°44'0 0.0
2015-Apr-28 05:33N 53°53' E 008°44'0 0.0
2015-Apr-28 04:30N 53°53' E 008°44'0 0.1
2015-Apr-28 03:24N 53°53' E 008°44'0 0.0
2015-Apr-28 02:33N 53°53' E 008°44'0 0.0
2015-Apr-28 01:33N 53°53' E 008°44'0 0.0
2015-Apr-28 00:33N 53°53' E 008°44'0 0.0
2015-Apr-27 23:33N 53°53' E 008°44'0 0.0
2015-Apr-27 22:33N 53°53' E 008°44'0 0.0
2015-Apr-27 21:33N 53°53' E 008°44'0 0.1
2015-Apr-27 20:33N 53°52' E 008°44'0 0.0
2015-Apr-27 19:33N 53°52' E 008°44'0 0.0
2015-Apr-27 18:33N 53°53' E 008°44'0 0.0
2015-Apr-27 17:33N 53°53' E 008°44'0 0.0
2015-Apr-27 16:33N 53°53' E 008°44'0 0.0
2015-Apr-27 15:33N 53°53' E 008°44'0 0.1
2015-Apr-27 14:30N 53°53' E 008°44'0 0.1
2015-Apr-27 13:33N 53°53' E 008°44'0 0.0
2015-Apr-27 12:33N 53°53' E 008°44'0 0.0
2015-Apr-27 11:33N 53°53' E 008°44'0 0.0
2015-Apr-27 10:33N 53°53' E 008°44'0 0.0
2015-Apr-27 09:33N 53°53' E 008°44'0 0.0
2015-Apr-27 08:33N 53°53' E 008°44'0 0.1
2015-Apr-27 07:33N 53°53' E 008°44'0 0.0
2015-Apr-27 06:33N 53°53' E 008°44'0 0.0
2015-Apr-27 05:33N 53°53' E 008°44'0 0.0
2015-Apr-27 04:33N 53°53' E 008°44'0 0.0
2015-Apr-27 03:33N 53°53' E 008°44'0 0.0
2015-Apr-27 02:33N 53°53' E 008°44'0 0.1
2015-Apr-27 01:33N 53°53' E 008°44'0 0.0
2015-Apr-27 00:33N 53°53' E 008°44'0 0.0
2015-Apr-26 23:33N 53°53' E 008°44'0 0.0
2015-Apr-26 22:33N 53°53' E 008°44'0 0.0
2015-Apr-26 21:33N 53°53' E 008°44'0 0.0
2015-Apr-26 20:33N 53°53' E 008°44'0 0.0
2015-Apr-26 19:33N 53°53' E 008°44'0 0.1
2015-Apr-26 18:33N 53°53' E 008°44'0 0.0
2015-Apr-26 17:33N 53°53' E 008°44'0 0.0
2015-Apr-26 16:33N 53°53' E 008°44'0 0.0
2015-Apr-26 15:33N 53°53' E 008°44'0 0.0
2015-Apr-26 14:33N 53°53' E 008°44'0 0.0
2015-Apr-26 13:33N 53°52' E 008°44'0 0.1
2015-Apr-26 12:33N 53°53' E 008°44'0 0.0
2015-Apr-26 11:33N 53°53' E 008°44'0 0.0
2015-Apr-26 10:33N 53°53' E 008°44'0 0.0
2015-Apr-26 09:33N 53°53' E 008°44'0 0.0
2015-Apr-26 08:33N 53°53' E 008°44'0 0.0
2015-Apr-26 07:33N 53°53' E 008°44'0 0.1
2015-Apr-26 06:33N 53°53' E 008°44'0 0.0
2015-Apr-26 05:33N 53°53' E 008°44'0 0.0
2015-Apr-26 04:33N 53°52' E 008°44'0 0.0
2015-Apr-26 03:33N 53°53' E 008°44'0 0.0
2015-Apr-26 02:33N 53°53' E 008°44'0 0.1
2015-Apr-26 01:33N 53°53' E 008°44'0 0.1
2015-Apr-26 00:33N 53°53' E 008°44'0 0.0
2015-Apr-25 23:33N 53°53' E 008°44'0 0.0
2015-Apr-25 22:33N 53°53' E 008°44'0 0.0
2015-Apr-25 21:33N 53°53' E 008°44'0 0.0
2015-Apr-25 20:33N 53°53' E 008°44'0 0.0
2015-Apr-25 19:33N 53°53' E 008°44'0 0.1
2015-Apr-25 18:27N 53°53' E 008°44'0 0.0
2015-Apr-25 17:33N 53°52' E 008°44'0 0.0
2015-Apr-25 16:33N 53°53' E 008°44'0 0.0
2015-Apr-25 15:33N 53°52' E 008°44'0 0.0
2015-Apr-25 14:33N 53°53' E 008°44'0 0.0
2015-Apr-25 13:33N 53°53' E 008°44'0 0.1
2015-Apr-25 12:33N 53°53' E 008°44'0 0.0
2015-Apr-25 11:33N 53°53' E 008°44'0 0.0
2015-Apr-25 10:33N 53°53' E 008°44'4 3.7
2015-Apr-25 09:33N 53°51' E 008°49'1212.3
2015-Apr-25 08:33N 53°53' E 009°09'10 9.9
2015-Apr-25 07:33N 53°47' E 009°23'8 8.5
2015-Apr-25 06:33N 53°40' E 009°31'8 7.5
2015-Apr-25 05:33N 53°34' E 009°39'7 7.4
2015-Apr-25 04:33N 53°33' E 009°51'5 4.9
2015-Apr-25 03:32N 53°30' E 009°58'0 0.0
2015-Apr-25 02:20N 53°30' E 009°58'0 0.0
2015-Apr-25 01:32N 53°30' E 009°58'0 0.0
2015-Apr-25 00:24N 53°30' E 009°58'0 0.0
2015-Apr-24 23:31N 53°30' E 009°58'0 0.0
2015-Apr-24 22:33N 53°30' E 009°58'0 0.0
2015-Apr-24 21:31N 53°30' E 009°58'0 0.0
2015-Apr-24 20:30N 53°30' E 009°58'0 0.0
2015-Apr-24 19:30N 53°30' E 009°58'0 0.0
2015-Apr-24 18:24N 53°30' E 009°58'0 0.0
2015-Apr-24 17:31N 53°30' E 009°58'0 0.0
2015-Apr-24 16:31N 53°30' E 009°58'0 0.0
2015-Apr-24 15:34N 53°30' E 009°58'0 0.0
2015-Apr-24 14:30N 53°30' E 009°58'0 0.0
2015-Apr-24 13:31N 53°30' E 009°58'0 0.0
2015-Apr-24 12:28N 53°30' E 009°58'0 0.0
2015-Apr-24 11:30N 53°30' E 009°58'0 0.0
2015-Apr-24 10:30N 53°30' E 009°58'0 0.0
2015-Apr-24 09:32N 53°30' E 009°58'0 0.0
2015-Apr-24 08:32N 53°30' E 009°58'0 0.0
2015-Apr-24 07:32N 53°30' E 009°58'0 0.0
2015-Apr-24 06:32N 53°30' E 009°58'0 0.0
2015-Apr-24 05:32N 53°30' E 009°58'0 0.0
2015-Apr-24 04:33N 53°30' E 009°58'2 2.1
2015-Apr-24 03:33N 53°32' E 009°56'10 9.7
2015-Apr-24 02:33N 53°34' E 009°40'9 9.2
2015-Apr-24 01:34N 53°41' E 009°30'8 8.0
2015-Apr-24 00:34N 53°48' E 009°23'7 6.5
2015-Apr-23 23:34N 53°52' E 009°15'4 3.8
2015-Apr-23 22:34N 53°54' E 009°09'1 0.8
2015-Apr-23 21:34N 53°54' E 009°10'3 3.1
2015-Apr-23 20:34N 53°56' E 009°13'7 7.3
2015-Apr-23 19:33N 54°03' E 009°18'16 7.3
2015-Apr-23 17:25N 54°14' E 009°37'7 7.6
2015-Apr-23 16:33N 54°20' E 009°43'7 7.4
2015-Apr-23 15:34N 54°20' E 009°56'7 7.5
2015-Apr-23 14:33N 54°22' E 010°09'1 0.9
2015-Apr-23 13:33N 54°22' E 010°10'3 3.2
2015-Apr-23 12:33N 54°25' E 010°13'8 8.0
2015-Apr-23 11:33N 54°31' E 010°22'9 8.4
2015-Apr-23 10:31N 54°34' E 010°36'16 7.9
2015-Apr-23 08:32N 54°36' E 011°03'7 7.4
2015-Apr-23 07:33N 54°35' E 011°15'7 6.9
2015-Apr-23 06:33N 54°28' E 011°20'6 6.1
2015-Apr-23 05:33N 54°23' E 011°14'3 2.4
2015-Apr-23 04:29N 54°25' E 011°11'0 0.0
2015-Apr-23 03:29N 54°25' E 011°11'0 0.0
2015-Apr-23 02:29N 54°25' E 011°11'0 0.0
2015-Apr-23 01:23N 54°25' E 011°11'0 0.0
2015-Apr-23 00:23N 54°25' E 011°11'0 0.0
2015-Apr-22 23:29N 54°25' E 011°11'0 0.0
2015-Apr-22 22:29N 54°25' E 011°11'0 0.0
2015-Apr-22 21:29N 54°25' E 011°11'0 0.0
2015-Apr-22 20:32N 54°25' E 011°11'0 0.0
2015-Apr-22 19:29N 54°25' E 011°11'0 0.0
2015-Apr-22 18:29N 54°25' E 011°11'0 0.0
2015-Apr-22 17:29N 54°25' E 011°11'0 0.0
2015-Apr-22 16:29N 54°25' E 011°11'0 0.0
2015-Apr-22 15:23N 54°25' E 011°11'0 0.0
2015-Apr-22 13:11N 54°25' E 011°11'0 0.0
2015-Apr-22 12:17N 54°25' E 011°11'0 0.0
2015-Apr-22 11:29N 54°25' E 011°11'0 0.0
2015-Apr-22 10:17N 54°25' E 011°11'0 0.0
2015-Apr-22 09:29N 54°25' E 011°11'0 0.0
2015-Apr-22 08:17N 54°25' E 011°11'0 0.0
2015-Apr-22 05:11N 54°25' E 011°11'0 0.0
2015-Apr-22 04:29N 54°25' E 011°11'2 2.5
2015-Apr-22 03:33N 54°23' E 011°14'5 4.7
2015-Apr-22 02:32N 54°26' E 011°21'6 6.5
2015-Apr-22 01:32N 54°32' E 011°17'10 9.0
2015-Apr-22 00:29N 54°34' E 011°00'18 9.5
2015-Apr-21 22:33N 54°32' E 010°29'5 4.9
2015-Apr-21 21:33N 54°31' E 010°21'6 5.8
2015-Apr-21 20:33N 54°33' E 010°30'52 2.3
2015-Apr-20 22:21N 55°08' E 011°36'  

Dump ship's entire track history